createdAt,value
2018-11-13T00:01:32.805Z,8.40
2018-11-13T00:04:01.345Z,8.30
2018-11-13T00:06:31.437Z,8.30
2018-11-13T00:09:00.974Z,8.30
2018-11-13T00:11:29.697Z,8.30
2018-11-13T00:13:58.077Z,8.30
2018-11-13T00:33:47.283Z,8.00
2018-11-13T00:36:15.669Z,8.00
2018-11-13T00:38:44.047Z,8.00
2018-11-13T00:58:34.305Z,7.70
2018-11-13T01:01:02.687Z,7.70
2018-11-13T01:20:52.413Z,8.00
2018-11-13T01:40:42.568Z,8.00
2018-11-13T01:43:10.988Z,7.90
2018-11-13T01:45:39.382Z,7.80
2018-11-13T02:05:28.186Z,7.70
2018-11-13T02:07:56.560Z,7.70
2018-11-13T02:27:46.088Z,7.60
2018-11-13T02:47:35.700Z,7.40
2018-11-13T02:50:04.350Z,7.50
2018-11-13T02:52:32.716Z,7.40
2018-11-13T02:55:01.076Z,7.50
2018-11-13T02:57:29.472Z,7.50
2018-11-13T03:17:18.844Z,7.50
2018-11-13T03:19:47.232Z,7.50
2018-11-13T03:39:36.682Z,7.50
2018-11-13T03:42:05.236Z,7.50
2018-11-13T03:44:33.679Z,7.50
2018-11-13T03:47:02.069Z,7.50
2018-11-13T03:49:30.464Z,7.60
2018-11-13T03:51:58.851Z,7.60
2018-11-13T03:54:27.225Z,7.60
2018-11-13T03:56:55.626Z,7.60
2018-11-13T03:59:23.988Z,7.60
2018-11-13T04:01:52.420Z,7.50
2018-11-13T04:04:20.802Z,7.50
2018-11-13T04:06:49.171Z,7.50
2018-11-13T04:09:17.552Z,7.50
2018-11-13T04:11:45.964Z,7.50
2018-11-13T04:14:14.348Z,7.50
2018-11-13T04:16:42.704Z,7.50
2018-11-13T04:19:11.109Z,7.50
2018-11-13T04:21:39.461Z,7.60
2018-11-13T04:24:07.835Z,7.70
2018-11-13T04:26:36.280Z,7.70
2018-11-13T04:29:04.683Z,7.60
2018-11-13T04:48:53.332Z,7.60
2018-11-13T04:51:21.750Z,7.60
2018-11-13T04:53:50.102Z,7.60
2018-11-13T05:13:39.015Z,7.80
2018-11-13T05:16:07.376Z,7.80
2018-11-13T05:18:35.873Z,7.80
2018-11-13T05:21:04.300Z,7.90
2018-11-13T05:23:32.661Z,7.90
2018-11-13T05:26:01.034Z,7.90
2018-11-13T05:28:29.421Z,7.90
2018-11-13T05:48:19.019Z,8.00
2018-11-13T05:50:47.490Z,8.00
2018-11-13T05:53:15.856Z,8.10
2018-11-13T05:55:44.229Z,8.10
2018-11-13T05:58:12.628Z,8.20
2018-11-13T06:00:41.015Z,8.20
2018-11-13T06:03:09.376Z,8.10
2018-11-13T06:05:37.772Z,8.10
2018-11-13T06:08:06.579Z,8.20
2018-11-13T06:10:34.976Z,8.20
2018-11-13T06:30:25.520Z,8.40
2018-11-13T06:32:53.909Z,8.40
2018-11-13T06:35:22.382Z,8.40
2018-11-13T06:37:50.788Z,8.40
2018-11-13T06:40:19.152Z,8.50
2018-11-13T06:42:47.523Z,8.50
2018-11-13T06:45:17.450Z,8.50
2018-11-13T06:47:46.624Z,8.50
2018-11-13T06:50:15.001Z,8.50
2018-11-13T07:10:04.219Z,8.30
2018-11-13T07:12:32.589Z,8.30
2018-11-13T07:15:00.954Z,8.40
2018-11-13T07:17:29.344Z,8.40
2018-11-13T07:19:57.720Z,8.40
2018-11-13T07:22:26.101Z,8.40
2018-11-13T07:24:54.499Z,8.50
2018-11-13T07:27:22.927Z,8.40
2018-11-13T07:29:51.268Z,8.50
2018-11-13T07:32:19.689Z,8.50
2018-11-13T07:34:48.076Z,8.50
2018-11-13T07:37:16.529Z,8.50
2018-11-13T07:39:44.936Z,8.60
2018-11-13T07:42:13.324Z,8.60
2018-11-13T07:44:41.708Z,8.50
2018-11-13T07:47:10.209Z,8.60
2018-11-13T07:49:38.755Z,8.60
2018-11-13T07:52:07.148Z,8.70
2018-11-13T07:54:37.288Z,8.70
2018-11-13T07:57:07.063Z,8.70
2018-11-13T07:59:36.073Z,8.80
2018-11-13T08:02:04.797Z,8.80
2018-11-13T08:21:54.626Z,9.00
2018-11-13T08:24:23.007Z,9.10
2018-11-13T08:26:51.375Z,9.10
2018-11-13T08:29:19.854Z,9.10
2018-11-13T08:31:48.164Z,9.10
2018-11-13T08:34:22.976Z,9.10
2018-11-13T08:36:51.385Z,9.10
2018-11-13T08:39:19.800Z,9.10
2018-11-13T08:41:48.176Z,9.10
2018-11-13T08:44:16.667Z,9.10
2018-11-13T08:46:44.988Z,9.20
2018-11-13T08:49:13.334Z,9.20
2018-11-13T08:51:41.725Z,9.20
2018-11-13T08:54:10.088Z,9.20
2018-11-13T08:56:38.503Z,9.30
2018-11-13T08:59:07.072Z,9.30
2018-11-13T09:01:35.333Z,9.30
2018-11-13T09:04:03.736Z,9.30
2018-11-13T09:06:32.125Z,9.40
2018-11-13T09:09:00.492Z,9.40
2018-11-13T09:11:28.942Z,9.40
2018-11-13T09:13:57.325Z,9.50
2018-11-13T09:16:25.687Z,9.60
2018-11-13T09:18:54.086Z,9.60
2018-11-13T09:21:22.474Z,9.60
2018-11-13T09:23:50.858Z,9.60
2018-11-13T09:26:19.234Z,9.70
2018-11-13T09:28:47.624Z,9.70
2018-11-13T09:31:16.003Z,9.70
2018-11-13T09:33:44.365Z,9.80
2018-11-13T09:36:12.793Z,9.80
2018-11-13T09:38:41.176Z,9.90
2018-11-13T09:41:09.565Z,9.90
2018-11-13T09:43:37.987Z,10.00
2018-11-13T09:46:06.474Z,9.90
2018-11-13T09:48:34.779Z,10.00
2018-11-13T09:51:03.164Z,10.00
2018-11-13T09:53:31.616Z,10.10
2018-11-13T09:56:00.582Z,10.10
2018-11-13T09:58:29.016Z,10.10
2018-11-13T10:00:57.688Z,10.10
2018-11-13T10:03:26.515Z,10.20
2018-11-13T10:05:54.289Z,10.20
2018-11-13T10:08:22.650Z,10.20
2018-11-13T10:10:51.163Z,10.30
2018-11-13T10:13:19.474Z,10.30
2018-11-13T10:15:47.832Z,10.40
2018-11-13T10:18:16.402Z,10.40
2018-11-13T10:20:44.624Z,10.40
2018-11-13T10:23:13.032Z,10.40
2018-11-13T10:25:41.406Z,10.50
2018-11-13T10:28:09.807Z,10.50
2018-11-13T10:30:38.163Z,10.60
2018-11-13T10:33:06.636Z,10.60
2018-11-13T10:35:35.501Z,10.70
2018-11-13T10:38:03.872Z,10.70
2018-11-13T10:40:32.313Z,10.70
2018-11-13T10:43:00.754Z,10.80
2018-11-13T10:45:29.499Z,10.80
2018-11-13T10:47:57.873Z,10.80
2018-11-13T10:50:27.314Z,10.90
2018-11-13T10:52:55.874Z,10.90
2018-11-13T10:55:24.235Z,10.90
2018-11-13T10:57:52.876Z,10.90
2018-11-13T11:00:26.658Z,11.00
2018-11-13T11:03:00.682Z,11.00
2018-11-13T11:05:29.453Z,11.10
2018-11-13T11:07:58.353Z,11.10
2018-11-13T11:10:27.182Z,11.10
2018-11-13T11:12:55.651Z,11.10
2018-11-13T11:15:24.632Z,11.10
2018-11-13T11:17:53.148Z,11.10
2018-11-13T11:20:21.521Z,11.20
2018-11-13T11:22:49.998Z,11.10
2018-11-13T11:25:18.741Z,11.10
2018-11-13T11:27:47.136Z,11.10
2018-11-13T11:30:16.259Z,11.10
2018-11-13T11:32:44.772Z,11.10
2018-11-13T11:35:13.333Z,11.10
2018-11-13T11:37:42.331Z,11.10
2018-11-13T11:40:11.644Z,11.10
2018-11-13T11:42:40.057Z,11.10
2018-11-13T11:45:10.333Z,11.10
2018-11-13T11:47:38.777Z,11.10
2018-11-13T11:50:08.225Z,11.10
2018-11-13T11:52:36.716Z,11.20
2018-11-13T11:55:05.644Z,11.20
2018-11-13T11:57:34.020Z,11.20
2018-11-13T12:00:02.452Z,11.30
2018-11-13T12:02:30.878Z,11.40
2018-11-13T12:04:59.660Z,11.40
2018-11-13T12:24:49.749Z,11.70
2018-11-13T12:27:18.104Z,11.80
2018-11-13T12:29:46.463Z,11.70
2018-11-13T12:32:14.973Z,11.70
2018-11-13T12:34:43.472Z,11.70
2018-11-13T12:37:11.769Z,11.60
2018-11-13T12:39:40.533Z,11.60
2018-11-13T12:42:08.925Z,11.50
2018-11-13T12:44:37.294Z,11.50
2018-11-13T12:47:06.184Z,11.50
2018-11-13T12:49:34.548Z,11.40
2018-11-13T12:52:08.481Z,11.40
2018-11-13T12:54:36.864Z,11.40
2018-11-13T12:57:05.448Z,11.30
2018-11-13T13:17:00.907Z,11.30
2018-11-13T13:19:29.280Z,11.30
2018-11-13T13:21:58.643Z,11.30
2018-11-13T13:24:27.076Z,11.30
2018-11-13T13:26:55.452Z,11.30
2018-11-13T13:29:23.824Z,11.30
2018-11-13T13:31:54.165Z,11.40
2018-11-13T13:34:22.511Z,11.40
2018-11-13T13:36:50.920Z,11.40
2018-11-13T13:39:19.312Z,11.40
2018-11-13T13:41:47.768Z,11.40
2018-11-13T13:44:16.186Z,11.40
2018-11-13T13:46:44.949Z,11.40
2018-11-13T13:49:13.274Z,11.40
2018-11-13T13:51:41.652Z,11.40
2018-11-13T13:54:10.221Z,11.40
2018-11-13T13:56:38.428Z,11.40
2018-11-13T13:59:06.812Z,11.40
2018-11-13T14:01:35.214Z,11.40
2018-11-13T14:04:03.583Z,11.40
2018-11-13T14:06:31.955Z,11.40
2018-11-13T14:09:00.552Z,11.40
2018-11-13T14:11:28.929Z,11.40
2018-11-13T14:13:57.333Z,11.40
2018-11-13T14:16:25.897Z,11.40
2018-11-13T14:18:54.277Z,11.40
2018-11-13T14:21:22.645Z,11.50
2018-11-13T14:23:51.329Z,11.50
2018-11-13T14:26:19.725Z,11.50
2018-11-13T14:28:48.093Z,11.40
2018-11-13T14:31:16.788Z,11.40
2018-11-13T14:33:45.173Z,11.40
2018-11-13T14:36:13.556Z,11.30
2018-11-13T14:38:42.243Z,11.30
2018-11-13T14:58:31.757Z,11.20
2018-11-13T15:01:00.166Z,11.20
2018-11-13T15:03:28.591Z,11.20
2018-11-13T15:23:17.616Z,11.10
2018-11-13T15:25:46.110Z,11.10
2018-11-13T15:28:14.788Z,11.10
2018-11-13T15:30:46.043Z,11.10
2018-11-13T15:33:16.436Z,11.10
2018-11-13T15:35:45.172Z,11.10
2018-11-13T15:38:13.568Z,11.10
2018-11-13T15:40:41.974Z,11.10
2018-11-13T15:43:10.365Z,11.00
2018-11-13T15:45:39.027Z,11.00
2018-11-13T15:48:08.923Z,11.00
2018-11-13T16:08:00.404Z,10.60
2018-11-13T16:10:28.797Z,10.50
2018-11-13T16:12:57.436Z,10.50
2018-11-13T16:15:27.029Z,10.50
2018-11-13T16:17:56.460Z,10.40
2018-11-13T16:20:25.268Z,10.40
2018-11-13T16:22:54.107Z,10.30
2018-11-13T16:25:22.574Z,10.30
2018-11-13T16:27:51.124Z,10.30
2018-11-13T16:30:21.521Z,10.30
2018-11-13T16:32:50.439Z,10.30
2018-11-13T16:52:39.289Z,9.90
2018-11-13T16:55:07.981Z,9.90
2018-11-13T16:57:36.343Z,9.90
2018-11-13T17:00:08.914Z,9.90
2018-11-13T17:02:37.288Z,10.00
2018-11-13T17:05:07.967Z,10.00
2018-11-13T17:07:36.352Z,9.90
2018-11-13T17:10:07.350Z,9.90
2018-11-13T17:29:57.261Z,9.70
2018-11-13T17:32:26.009Z,9.70
2018-11-13T17:34:54.557Z,9.80
2018-11-13T17:37:22.924Z,9.90
2018-11-13T17:39:51.652Z,9.90
2018-11-13T17:42:20.037Z,9.90
2018-11-13T17:44:48.489Z,9.90
2018-11-13T17:47:17.146Z,10.00
2018-11-13T17:49:45.515Z,10.00
2018-11-13T17:52:13.952Z,10.00
2018-11-13T17:54:42.463Z,10.00
2018-11-13T17:57:10.855Z,9.90
2018-11-13T17:59:39.273Z,9.90
2018-11-13T18:02:08.536Z,9.90
2018-11-13T18:04:36.943Z,9.90
2018-11-13T18:07:05.599Z,10.00
2018-11-13T18:09:34.310Z,10.00
2018-11-13T18:12:02.694Z,10.00
2018-11-13T18:14:31.070Z,10.00
2018-11-13T18:16:59.719Z,10.00
2018-11-13T18:19:28.103Z,10.00
2018-11-13T18:21:57.013Z,10.00
2018-11-13T18:24:25.417Z,9.90
2018-11-13T18:26:53.973Z,9.90
2018-11-13T18:29:22.371Z,9.90
2018-11-13T18:31:50.997Z,9.80
2018-11-13T18:34:19.449Z,9.90
2018-11-13T18:36:47.848Z,9.80
2018-11-13T18:39:16.269Z,9.80
2018-11-13T18:41:44.676Z,9.80
2018-11-13T18:44:13.182Z,9.70
2018-11-13T18:46:41.600Z,9.70
2018-11-13T18:49:10.184Z,9.60
2018-11-13T18:51:38.693Z,9.50
2018-11-13T18:54:07.096Z,9.40
2018-11-13T18:56:35.484Z,9.40
2018-11-13T18:59:04.373Z,9.40
2018-11-13T19:01:32.828Z,9.30
2018-11-13T19:04:01.300Z,9.20
2018-11-13T19:06:29.719Z,9.20
2018-11-13T19:08:58.171Z,9.20
2018-11-13T19:11:26.659Z,9.10
2018-11-13T19:31:17.435Z,8.90
2018-11-13T19:33:46.015Z,9.00
2018-11-13T19:36:15.172Z,9.00
2018-11-13T19:38:44.474Z,9.00
2018-11-13T19:41:14.180Z,9.00
2018-11-13T19:43:43.398Z,9.00
2018-11-13T19:46:12.594Z,9.00
2018-11-13T19:48:41.684Z,9.00
2018-11-13T19:51:10.810Z,9.10
2018-11-13T19:53:40.458Z,9.10
2018-11-13T19:56:10.038Z,9.10
2018-11-13T19:58:39.515Z,9.10
2018-11-13T20:01:08.354Z,9.00
2018-11-13T20:20:59.037Z,8.60
2018-11-13T20:23:27.644Z,8.50
2018-11-13T20:25:56.001Z,8.50
2018-11-13T20:28:25.104Z,8.40
2018-11-13T20:30:53.511Z,8.40
2018-11-13T20:50:43.077Z,8.10
2018-11-13T20:53:11.468Z,8.10
2018-11-13T20:55:39.900Z,8.10
2018-11-13T21:15:30.461Z,8.00
2018-11-13T21:17:58.832Z,7.90
2018-11-13T21:37:49.754Z,8.00
2018-11-13T21:40:20.216Z,8.00
2018-11-13T21:42:49.537Z,8.00
2018-11-13T21:45:18.900Z,8.00
2018-11-13T21:47:47.300Z,8.00
2018-11-13T21:50:18.156Z,8.10
2018-11-13T21:52:46.527Z,8.10
2018-11-13T21:55:16.553Z,8.20
2018-11-13T21:57:45.043Z,8.30
2018-11-13T22:17:33.065Z,8.40
2018-11-13T22:37:21.944Z,8.40
2018-11-13T22:39:50.398Z,8.50
2018-11-13T22:59:39.202Z,8.70
2018-11-13T23:02:07.586Z,8.70
2018-11-13T23:04:35.931Z,8.70
2018-11-13T23:24:26.159Z,8.60
2018-11-13T23:26:54.535Z,8.60
2018-11-13T23:29:22.933Z,8.50
2018-11-13T23:31:51.321Z,8.50
2018-11-13T23:34:19.690Z,8.50
2018-11-13T23:54:07.438Z,8.50
2018-11-13T23:56:35.809Z,8.50
2018-11-13T23:59:04.237Z,8.40
